Time;durP1;ratioP1;P1;durP2;ratioP2;P2;SDS_P1;SDS_P2;PMS_P1;PMS_P2;Temp;Humidity;BMP_temperature;BMP_pressure;BME280_temperature;BME280_humidity;BME280_pressure;Samples;Min_cycle;Max_cycle;Signal;HPM_P1;HPM_P2
2021/09/26 00:01:53;;;;;;;35.08;31.00;;;17.40;99.90;;;;;;5134234;27;20047;-48
2021/09/26 00:04:19;;;;;;;39.75;34.30;;;17.50;99.90;;;;;;5132869;27;20053;-52
2021/09/26 00:06:45;;;;;;;39.90;33.92;;;17.40;99.90;;;;;;5138728;27;20108;-48
2021/09/26 00:09:11;;;;;;;37.47;32.10;;;17.40;99.90;;;;;;5148392;27;20494;-49
2021/09/26 00:11:40;;;;;;;37.53;33.40;;;17.40;99.90;;;;;;5148482;27;20053;-54
2021/09/26 00:14:07;;;;;;;38.45;33.25;;;17.40;99.90;;;;;;5144411;27;20043;-48
2021/09/26 00:16:34;;;;;;;45.10;34.22;;;17.50;99.90;;;;;;5145980;27;20054;-51
2021/09/26 00:19:00;;;;;;;42.40;33.53;;;17.40;99.90;;;;;;5147280;27;20062;-52
2021/09/26 00:21:27;;;;;;;37.85;32.38;;;17.40;99.90;;;;;;5149707;27;20039;-50
2021/09/26 00:23:54;;;;;;;37.92;33.08;;;17.40;99.90;;;;;;5149690;27;20531;-51
2021/09/26 00:26:20;;;;;;;39.15;33.40;;;17.40;99.90;;;;;;5147859;27;20058;-51
2021/09/26 00:28:48;;;;;;;36.83;32.85;;;17.50;99.90;;;;;;5139858;27;20051;-49
2021/09/26 00:31:14;;;;;;;33.38;29.65;;;17.50;99.90;;;;;;5149317;27;20753;-48
2021/09/26 00:33:40;;;;;;;39.90;33.08;;;17.50;99.90;;;;;;5149475;27;20051;-49
2021/09/26 00:36:06;;;;;;;31.90;27.45;;;17.50;99.90;;;;;;5147703;27;20118;-51
2021/09/26 00:38:32;;;;;;;37.22;32.28;;;17.40;99.90;;;;;;5145754;27;20417;-50
2021/09/26 00:40:58;;;;;;;37.75;31.67;;;17.40;99.90;;;;;;5147943;27;20848;-49
2021/09/26 00:43:28;;;;;;;34.40;30.70;;;17.40;99.90;;;;;;5149789;27;20054;-49
2021/09/26 00:45:56;;;;;;;35.38;31.60;;;17.40;99.90;;;;;;5149220;27;20043;-51
2021/09/26 00:48:22;;;;;;;37.72;31.85;;;17.40;99.90;;;;;;5139060;27;20142;-53
2021/09/26 00:50:48;;;;;;;37.25;31.35;;;17.30;99.90;;;;;;5145944;27;20179;-50
2021/09/26 00:53:18;;;;;;;39.10;32.90;;;17.30;99.90;;;;;;5149247;27;20050;-49
2021/09/26 00:55:46;;;;;;;40.53;34.45;;;17.30;99.90;;;;;;5148913;27;20063;-50
2021/09/26 00:58:12;;;;;;;36.38;30.30;;;17.30;99.90;;;;;;5134391;27;20055;-50
2021/09/26 01:00:38;;;;;;;38.70;31.42;;;17.20;99.90;;;;;;5139995;27;20414;-49
2021/09/26 01:03:04;;;;;;;39.42;34.65;;;17.10;99.90;;;;;;5129536;27;20061;-52
2021/09/26 01:05:30;;;;;;;41.28;34.00;;;17.10;99.90;;;;;;5147765;27;20057;-49
2021/09/26 01:08:14;;;;;;;40.83;34.40;;;17.00;99.90;;;;;;5149370;27;20073;-48
2021/09/26 01:10:58;;;;;;;39.55;34.35;;;17.00;99.90;;;;;;5148616;27;20095;-54
2021/09/26 01:13:56;;;;;;;37.45;32.13;;;16.90;99.90;;;;;;5149319;27;20116;-49
2021/09/26 01:16:31;;;;;;;43.78;34.25;;;16.80;99.90;;;;;;5149818;27;20058;-53
2021/09/26 01:19:02;;;;;;;40.20;34.75;;;16.80;99.90;;;;;;5131271;27;20058;-49
2021/09/26 01:21:43;;;;;;;41.47;35.10;;;16.70;99.90;;;;;;5151330;27;20499;-50
2021/09/26 01:24:47;;;;;;;40.25;35.65;;;16.70;99.90;;;;;;5152780;27;20059;-49
2021/09/26 01:27:28;;;;;;;41.25;34.58;;;16.60;99.90;;;;;;5134034;27;20050;-49
2021/09/26 01:30:23;;;;;;;38.50;32.55;;;16.50;99.90;;;;;;5150636;27;20043;-52
2021/09/26 01:33:09;;;;;;;44.33;36.17;;;16.50;99.90;;;;;;5149014;27;20139;-50
2021/09/26 01:35:52;;;;;;;42.80;37.15;;;16.40;99.90;;;;;;5152093;27;20053;-49
2021/09/26 01:38:31;;;;;;;39.83;31.25;;;16.30;99.90;;;;;;5134454;27;20126;-53
2021/09/26 01:41:10;;;;;;;41.13;34.80;;;16.30;99.90;;;;;;5127365;27;21594;-51
2021/09/26 01:43:39;;;;;;;39.92;33.45;;;16.20;99.90;;;;;;5139289;27;20043;-51
2021/09/26 01:46:13;;;;;;;38.88;34.63;;;16.20;99.90;;;;;;5150678;27;20518;-51
2021/09/26 01:49:05;;;;;;;41.08;35.65;;;16.10;99.90;;;;;;5148134;27;20107;-54
2021/09/26 01:51:39;;;;;;;;;;;16.10;99.90;;;;;;5138913;27;20047;-49
2021/09/26 01:54:08;;;;;;;47.40;37.70;;;16.00;99.90;;;;;;5131502;27;19986;-50
2021/09/26 01:56:36;;;;;;;48.45;40.15;;;16.00;99.90;;;;;;5148781;27;20406;-52
2021/09/26 01:59:04;;;;;;;46.53;38.75;;;16.00;99.90;;;;;;5142396;27;20050;-50
2021/09/26 02:01:30;;;;;;;52.60;42.95;;;16.00;99.90;;;;;;5150303;27;20080;-53
2021/09/26 02:03:57;;;;;;;54.45;42.38;;;15.90;99.90;;;;;;5148893;27;20054;-49
2021/09/26 02:06:24;;;;;;;49.45;42.13;;;15.90;99.90;;;;;;5149148;27;20390;-50
2021/09/26 02:08:51;;;;;;;48.80;38.53;;;15.80;99.90;;;;;;5150531;27;20101;-50
2021/09/26 02:11:18;;;;;;;53.17;41.78;;;15.80;99.90;;;;;;5148569;27;20054;-51
2021/09/26 02:13:47;;;;;;;48.97;40.45;;;15.80;99.90;;;;;;5120794;27;20103;-52
2021/09/26 02:16:15;;;;;;;51.33;41.88;;;15.70;99.90;;;;;;5148101;27;20042;-51
2021/09/26 02:18:42;;;;;;;61.92;45.97;;;15.70;99.90;;;;;;5150344;27;20411;-52
2021/09/26 02:21:08;;;;;;;63.92;48.17;;;15.70;99.90;;;;;;5149066;27;20581;-50
2021/09/26 02:23:35;;;;;;;53.60;44.10;;;15.70;99.90;;;;;;5127027;27;20128;-50
2021/09/26 02:26:04;;;;;;;59.58;47.72;;;15.70;99.90;;;;;;5144831;27;20046;-50
2021/09/26 02:28:30;;;;;;;52.92;44.60;;;15.70;99.90;;;;;;5148645;27;20050;-53
2021/09/26 02:30:56;;;;;;;57.92;47.13;;;15.70;99.90;;;;;;5143142;27;20046;-48
2021/09/26 02:33:25;;;;;;;61.20;49.30;;;15.60;99.90;;;;;;5150060;27;20061;-48
2021/09/26 02:35:52;;;;;;;56.20;43.97;;;15.70;99.90;;;;;;5146284;27;20205;-51
2021/09/26 02:38:18;;;;;;;54.60;44.85;;;15.70;99.90;;;;;;5142289;27;20134;-49
2021/09/26 02:40:51;;;;;;;59.80;47.28;;;15.60;99.90;;;;;;5150886;27;20107;-52
2021/09/26 02:43:17;;;;;;;55.92;45.15;;;15.60;99.90;;;;;;5150170;27;20083;-50
2021/09/26 02:46:30;;;;;;;60.65;47.85;;;15.50;99.90;;;;;;5141357;27;20099;-50
2021/09/26 02:48:57;;;;;;;50.75;42.80;;;15.50;99.90;;;;;;5141482;27;20937;-51
2021/09/26 02:51:24;;;;;;;73.60;52.15;;;15.30;99.90;;;;;;5147410;27;20057;-48
2021/09/26 02:53:53;;;;;;;57.90;45.35;;;15.40;99.90;;;;;;5133342;27;20047;-48
2021/09/26 02:56:20;;;;;;;74.07;52.95;;;15.30;99.90;;;;;;5139055;27;20063;-51
2021/09/26 02:58:46;;;;;;;69.25;51.80;;;15.40;99.90;;;;;;5130822;27;20507;-48
2021/09/26 03:01:12;;;;;;;63.53;49.58;;;15.30;99.90;;;;;;5138433;27;20915;-50
2021/09/26 03:03:37;;;;;;;69.50;53.20;;;15.30;99.90;;;;;;5141586;27;20122;-50
2021/09/26 03:06:03;;;;;;;71.72;51.92;;;15.30;99.90;;;;;;5143987;27;20055;-49
2021/09/26 03:08:29;;;;;;;64.72;50.47;;;15.40;99.90;;;;;;5142210;27;20086;-49
2021/09/26 03:11:00;;;;;;;66.57;49.35;;;15.40;99.90;;;;;;5141884;27;20065;-51
2021/09/26 03:13:26;;;;;;;61.10;49.78;;;15.30;99.90;;;;;;5125357;27;20515;-50
2021/09/26 03:15:52;;;;;;;57.30;45.53;;;15.30;99.90;;;;;;5146759;27;20089;-47
2021/09/26 03:18:18;;;;;;;58.47;48.90;;;15.20;99.90;;;;;;5144232;27;20074;-46
2021/09/26 03:20:44;;;;;;;73.43;53.40;;;15.20;99.90;;;;;;5137302;27;20051;-50
2021/09/26 03:23:10;;;;;;;58.67;46.95;;;15.20;99.90;;;;;;5141269;27;20050;-48
2021/09/26 03:25:36;;;;;;;68.97;51.33;;;15.20;99.90;;;;;;5140632;27;20051;-50
2021/09/26 03:28:02;;;;;;;62.78;47.92;;;15.20;99.90;;;;;;5134629;27;20585;-48
2021/09/26 03:30:28;;;;;;;64.38;48.42;;;15.10;99.90;;;;;;5140305;27;20051;-48
2021/09/26 03:32:55;;;;;;;54.03;44.63;;;15.10;99.90;;;;;;5138594;27;20051;-50
2021/09/26 03:35:21;;;;;;;51.13;43.30;;;15.10;99.90;;;;;;5141282;27;20089;-47
2021/09/26 03:37:48;;;;;;;63.40;49.03;;;15.00;99.90;;;;;;5138373;27;20129;-47
2021/09/26 03:40:15;;;;;;;51.58;43.55;;;15.00;99.90;;;;;;5151213;27;20063;-50
2021/09/26 03:42:42;;;;;;;48.67;40.05;;;15.00;99.90;;;;;;5148454;27;20061;-50
2021/09/26 03:45:10;;;;;;;55.47;44.30;;;14.90;99.90;;;;;;5142134;27;20053;-47
2021/09/26 03:47:36;;;;;;;42.63;38.15;;;14.80;99.90;;;;;;5142075;27;20054;-47
2021/09/26 03:50:04;;;;;;;56.33;46.38;;;14.80;99.90;;;;;;5140231;27;20562;-48
2021/09/26 03:52:31;;;;;;;49.75;42.75;;;14.70;99.90;;;;;;5137087;27;20579;-49
2021/09/26 03:55:01;;;;;;;47.55;40.53;;;14.70;99.90;;;;;;5136902;27;20073;-48
2021/09/26 03:57:27;;;;;;;69.57;50.00;;;14.60;99.90;;;;;;5138721;27;20060;-50
2021/09/26 03:59:53;;;;;;;65.20;50.88;;;14.60;99.90;;;;;;5143355;27;20125;-49
2021/09/26 04:02:19;;;;;;;59.10;46.53;;;14.60;99.90;;;;;;5120219;27;20402;-49
2021/09/26 04:04:45;;;;;;;59.10;45.65;;;14.60;99.90;;;;;;5134391;27;20051;-50
2021/09/26 04:07:11;;;;;;;65.82;47.88;;;14.50;99.90;;;;;;5149677;27;20129;-49
2021/09/26 04:09:37;;;;;;;55.90;44.78;;;14.50;99.90;;;;;;5130952;27;20054;-48
2021/09/26 04:12:04;;;;;;;58.50;48.38;;;14.60;99.90;;;;;;5147574;27;20082;-49
2021/09/26 04:14:30;;;;;;;80.32;55.67;;;14.60;99.90;;;;;;5149053;27;20137;-49
2021/09/26 04:16:56;;;;;;;62.67;48.58;;;14.60;99.90;;;;;;5149348;27;20129;-47
2021/09/26 04:19:22;;;;;;;65.80;49.15;;;14.60;99.90;;;;;;5148675;27;20062;-48
2021/09/26 04:21:50;;;;;;;62.03;49.10;;;14.60;99.90;;;;;;5137579;27;20059;-48
2021/09/26 04:24:18;;;;;;;78.90;55.25;;;14.50;99.90;;;;;;5147866;27;20447;-50
2021/09/26 04:26:44;;;;;;;76.57;54.95;;;14.50;99.90;;;;;;5148862;27;20126;-50
2021/09/26 04:29:10;;;;;;;71.43;53.90;;;14.50;99.90;;;;;;5139443;27;20050;-49
2021/09/26 04:31:36;;;;;;;73.18;52.72;;;14.50;99.90;;;;;;5156614;27;20087;-48
2021/09/26 04:34:02;;;;;;;68.22;50.33;;;14.50;99.90;;;;;;5139248;27;20047;-52
2021/09/26 04:36:29;;;;;;;70.35;52.90;;;14.40;99.90;;;;;;5149696;27;20109;-49
2021/09/26 04:38:55;;;;;;;62.42;49.53;;;14.50;99.90;;;;;;5149993;27;20499;-49
2021/09/26 04:41:24;;;;;;;67.50;51.28;;;14.40;99.90;;;;;;5129165;27;20058;-49
2021/09/26 04:43:50;;;;;;;64.32;48.45;;;14.40;99.90;;;;;;5133107;27;20051;-50
2021/09/26 04:46:16;;;;;;;69.72;50.97;;;14.40;99.90;;;;;;5139106;27;20447;-50
2021/09/26 04:48:42;;;;;;;72.00;50.80;;;14.40;99.90;;;;;;5128430;28;20058;-49
2021/09/26 04:51:08;;;;;;;59.75;45.60;;;14.40;99.90;;;;;;5143931;27;20090;-48
2021/09/26 04:53:34;;;;;;;64.43;50.03;;;14.40;99.90;;;;;;5140752;27;20103;-47
2021/09/26 04:56:00;;;;;;;63.55;48.58;;;14.40;99.90;;;;;;5146379;27;20138;-52
2021/09/26 04:58:28;;;;;;;58.85;45.85;;;14.30;99.90;;;;;;5142219;27;20130;-49
2021/09/26 05:00:54;;;;;;;57.72;44.92;;;14.40;99.90;;;;;;5121371;27;20351;-47
2021/09/26 05:03:20;;;;;;;61.95;46.50;;;14.30;99.90;;;;;;5148684;27;20047;-50
2021/09/26 05:05:46;;;;;;;59.50;46.72;;;14.40;99.90;;;;;;5130521;27;20054;-49
2021/09/26 05:08:12;;;;;;;59.15;46.75;;;14.30;99.90;;;;;;5141372;27;20129;-50
2021/09/26 05:10:38;;;;;;;60.83;47.03;;;14.30;99.90;;;;;;5146674;27;20490;-48
2021/09/26 05:13:04;;;;;;;54.28;42.45;;;14.20;99.90;;;;;;5140206;27;20047;-50
2021/09/26 05:15:30;;;;;;;46.97;39.67;;;14.10;99.90;;;;;;5147186;27;20054;-50
2021/09/26 05:17:57;;;;;;;54.20;43.17;;;14.10;99.90;;;;;;5128563;27;20047;-51
2021/09/26 05:20:23;;;;;;;51.75;41.33;;;14.10;99.90;;;;;;5148960;27;20051;-47
2021/09/26 05:22:49;;;;;;;54.08;42.17;;;14.00;99.90;;;;;;5146016;27;20056;-49
2021/09/26 05:25:16;;;;;;;53.40;44.70;;;14.00;99.90;;;;;;5143402;27;20130;-50
2021/09/26 05:27:45;;;;;;;52.40;43.55;;;14.10;99.90;;;;;;5143139;27;20047;-51
2021/09/26 05:30:12;;;;;;;53.40;41.92;;;14.10;99.90;;;;;;5152429;27;20059;-51
2021/09/26 05:32:38;;;;;;;62.03;44.97;;;14.10;99.90;;;;;;5132767;27;20055;-51
2021/09/26 05:35:05;;;;;;;61.50;43.80;;;14.10;99.90;;;;;;5143274;27;20047;-47
2021/09/26 05:37:31;;;;;;;50.78;40.50;;;14.10;99.90;;;;;;5143121;27;20420;-53
2021/09/26 05:39:57;;;;;;;49.40;40.95;;;14.00;99.90;;;;;;5134100;27;20074;-52
2021/09/26 05:42:23;;;;;;;54.53;41.15;;;14.00;99.90;;;;;;5151033;27;20087;-51
2021/09/26 05:44:49;;;;;;;53.72;43.17;;;14.00;99.90;;;;;;5151767;27;20061;-55
2021/09/26 05:47:15;;;;;;;51.10;40.22;;;14.00;99.90;;;;;;5148679;27;20047;-56
2021/09/26 05:49:42;;;;;;;47.15;39.58;;;14.10;99.90;;;;;;5147402;27;20046;-55
2021/09/26 05:52:09;;;;;;;48.65;40.20;;;14.20;99.90;;;;;;5146804;27;20088;-52
2021/09/26 05:54:39;;;;;;;57.90;48.08;;;14.20;99.90;;;;;;5148710;27;20047;-51
2021/09/26 05:57:06;;;;;;;146.40;130.65;;;14.30;99.90;;;;;;5144149;27;20050;-49
2021/09/26 05:59:37;;;;;;;51.40;45.20;;;14.30;99.90;;;;;;5146580;27;20051;-52
2021/09/26 06:02:05;;;;;;;59.22;50.22;;;14.40;99.90;;;;;;5148573;27;20051;-53
2021/09/26 06:04:31;;;;;;;45.75;39.28;;;14.40;99.90;;;;;;5145671;27;20050;-53
2021/09/26 06:06:57;;;;;;;44.40;37.75;;;14.40;99.90;;;;;;5096229;27;20130;-52
2021/09/26 06:09:23;;;;;;;51.17;44.45;;;14.50;99.90;;;;;;5151262;27;20126;-49
2021/09/26 06:11:52;;;;;;;40.45;36.03;;;14.50;99.90;;;;;;5147941;27;20046;-49
2021/09/26 06:14:21;;;;;;;43.20;37.10;;;14.50;99.90;;;;;;5143922;27;20494;-48
2021/09/26 06:16:47;;;;;;;72.07;60.50;;;14.60;99.90;;;;;;5132580;27;20126;-51
2021/09/26 06:19:13;;;;;;;67.28;59.92;;;14.60;99.90;;;;;;5150753;27;20498;-49
2021/09/26 06:21:43;;;;;;;54.55;46.92;;;14.70;99.90;;;;;;5147040;27;20522;-48
2021/09/26 06:24:11;;;;;;;40.67;35.53;;;14.80;99.90;;;;;;5148233;27;20046;-52
2021/09/26 06:26:40;;;;;;;42.22;36.80;;;14.80;99.90;;;;;;5150294;27;20490;-53
2021/09/26 06:29:07;;;;;;;73.40;65.53;;;14.70;99.90;;;;;;5150243;27;20753;-52
2021/09/26 06:31:34;;;;;;;43.20;36.95;;;14.80;99.90;;;;;;5148952;27;20042;-55
2021/09/26 06:34:00;;;;;;;37.13;32.30;;;14.80;99.90;;;;;;5150427;27;20230;-53
2021/09/26 06:36:27;;;;;;;37.00;32.05;;;14.90;99.90;;;;;;5147653;27;20062;-55
2021/09/26 06:38:55;;;;;;;37.58;33.47;;;14.90;99.90;;;;;;5124322;27;20051;-53
2021/09/26 06:41:23;;;;;;;33.45;29.83;;;15.00;99.90;;;;;;5132237;27;20082;-55
2021/09/26 06:43:53;;;;;;;34.80;31.20;;;15.00;99.90;;;;;;5149074;27;20046;-54
2021/09/26 06:46:19;;;;;;;35.42;31.77;;;15.20;99.90;;;;;;5150576;27;20633;-54
2021/09/26 06:48:45;;;;;;;31.35;28.15;;;15.30;99.90;;;;;;5126910;27;20108;-52
2021/09/26 06:51:12;;;;;;;28.20;25.17;;;15.60;99.90;;;;;;5148387;27;20142;-54
2021/09/26 06:53:41;;;;;;;27.95;24.95;;;15.80;99.90;;;;;;5149613;27;20054;-55
2021/09/26 06:56:07;;;;;;;49.72;44.42;;;16.10;99.90;;;;;;5149678;27;20062;-53
2021/09/26 06:58:33;;;;;;;25.02;22.58;;;16.50;99.90;;;;;;5147834;27;20047;-53
2021/09/26 07:00:59;;;;;;;32.60;28.15;;;16.70;99.90;;;;;;5146698;27;20526;-54
2021/09/26 07:03:25;;;;;;;24.33;21.90;;;17.00;99.90;;;;;;5151310;27;20050;-55
2021/09/26 07:05:52;;;;;;;36.15;32.38;;;17.30;99.90;;;;;;5146665;27;20047;-56
2021/09/26 07:08:18;;;;;;;21.50;19.50;;;17.50;99.90;;;;;;5146183;27;20050;-56
2021/09/26 07:10:44;;;;;;;20.90;18.70;;;17.80;99.90;;;;;;5148379;27;20510;-47
2021/09/26 07:13:10;;;;;;;19.95;18.00;;;18.10;99.90;;;;;;5129507;27;20047;-49
2021/09/26 07:15:36;;;;;;;20.48;18.25;;;18.40;99.90;;;;;;5145654;27;20050;-50
2021/09/26 07:18:02;;;;;;;18.77;16.88;;;18.50;99.90;;;;;;5146511;27;20490;-49
2021/09/26 07:20:29;;;;;;;18.88;17.02;;;18.40;99.90;;;;;;5148195;27;20047;-52
2021/09/26 07:23:02;;;;;;;19.35;17.65;;;18.30;99.90;;;;;;5148433;27;20057;-48
2021/09/26 07:25:31;;;;;;;94.97;85.80;;;18.30;99.90;;;;;;5147791;27;20798;-49
2021/09/26 07:27:58;;;;;;;22.05;19.90;;;18.50;99.90;;;;;;5146570;27;20104;-48
2021/09/26 07:30:24;;;;;;;20.08;18.23;;;18.80;99.90;;;;;;5146573;27;20070;-51
2021/09/26 07:32:50;;;;;;;18.35;16.58;;;19.40;99.90;;;;;;5145873;27;20055;-49
2021/09/26 07:35:21;;;;;;;18.38;16.20;;;19.60;99.90;;;;;;5125529;27;20516;-47
2021/09/26 07:37:50;;;;;;;16.40;14.82;;;20.20;99.90;;;;;;5145099;27;20542;-47
2021/09/26 07:40:17;;;;;;;18.45;16.65;;;20.40;99.90;;;;;;5144330;27;20055;-50
2021/09/26 07:42:48;;;;;;;16.75;15.05;;;20.70;99.90;;;;;;5146501;27;20046;-56
2021/09/26 07:45:15;;;;;;;14.95;13.02;;;21.10;99.90;;;;;;5149399;27;20107;-53
2021/09/26 07:47:44;;;;;;;21.90;19.55;;;21.10;99.90;;;;;;5149249;27;20046;-56
2021/09/26 07:50:15;;;;;;;23.58;21.33;;;21.00;99.90;;;;;;5130289;27;20127;-53
2021/09/26 07:52:41;;;;;;;16.90;15.13;;;20.60;99.90;;;;;;5142169;27;20058;-56
2021/09/26 07:55:09;;;;;;;37.33;33.65;;;20.30;99.90;;;;;;5141715;27;20476;-56
2021/09/26 07:57:35;;;;;;;45.00;40.38;;;20.00;99.90;;;;;;5147770;27;20096;-55
2021/09/26 08:00:06;;;;;;;21.58;19.45;;;19.70;99.90;;;;;;5149692;27;20055;-55
2021/09/26 08:02:38;;;;;;;21.15;19.02;;;19.50;99.90;;;;;;5147708;27;20121;-54
2021/09/26 08:05:05;;;;;;;20.63;18.63;;;19.30;99.90;;;;;;5127585;27;20104;-56
2021/09/26 08:07:32;;;;;;;24.35;21.88;;;19.20;99.90;;;;;;5147850;27;20054;-56
2021/09/26 08:09:59;;;;;;;18.13;16.42;;;19.00;99.90;;;;;;5147718;27;20667;-56
2021/09/26 08:12:26;;;;;;;17.55;14.90;;;19.00;99.90;;;;;;5146938;27;20058;-54
2021/09/26 08:14:52;;;;;;;19.98;17.98;;;18.90;99.90;;;;;;5140091;27;20391;-52
2021/09/26 08:17:18;;;;;;;25.60;23.02;;;19.00;99.90;;;;;;5148846;27;20402;-57
2021/09/26 08:19:44;;;;;;;19.13;17.33;;;19.00;99.90;;;;;;5149737;27;20050;-57
2021/09/26 08:22:11;;;;;;;23.38;21.02;;;18.80;99.90;;;;;;5145073;27;20506;-57
2021/09/26 08:24:39;;;;;;;27.38;24.65;;;18.80;99.90;;;;;;5147990;27;20529;-58
2021/09/26 08:27:11;;;;;;;22.50;20.30;;;18.80;99.90;;;;;;5147363;27;20479;-57
2021/09/26 08:29:37;;;;;;;19.30;17.45;;;18.70;99.90;;;;;;5149973;27;20058;-53
2021/09/26 08:32:06;;;;;;;17.45;15.73;;;18.60;99.90;;;;;;5139321;27;20599;-57
2021/09/26 08:34:35;;;;;;;18.48;16.55;;;18.50;99.90;;;;;;5149205;27;20045;-57
2021/09/26 08:37:04;;;;;;;20.98;18.88;;;18.30;99.90;;;;;;5151432;27;20832;-58
2021/09/26 08:39:33;;;;;;;;;;;18.30;99.90;;;;;;5153301;27;20047;-59
2021/09/26 08:42:05;;;;;;;20.33;17.13;;;18.30;99.90;;;;;;5151916;27;19926;-57
2021/09/26 08:44:34;;;;;;;20.40;18.27;;;18.20;99.90;;;;;;5151140;27;20050;-54
2021/09/26 08:47:06;;;;;;;28.85;25.83;;;18.30;99.90;;;;;;5128322;27;20129;-56
2021/09/26 08:49:37;;;;;;;25.27;22.10;;;18.30;99.90;;;;;;5148132;27;20050;-55
2021/09/26 08:52:04;;;;;;;20.63;18.63;;;18.40;99.90;;;;;;5141554;27;20456;-56
2021/09/26 08:54:30;;;;;;;19.38;17.20;;;18.40;99.90;;;;;;5148516;27;20046;-52
2021/09/26 08:57:00;;;;;;;20.35;18.17;;;18.30;99.90;;;;;;5148290;27;20050;-50
2021/09/26 08:59:26;;;;;;;19.52;17.52;;;18.30;99.90;;;;;;5148781;27;20060;-52
2021/09/26 09:01:52;;;;;;;19.38;17.48;;;18.20;99.90;;;;;;5148827;27;20329;-56
2021/09/26 09:04:41;;;;;;;20.02;17.92;;;18.10;99.90;;;;;;5150113;27;20054;-57
2021/09/26 09:07:10;;;;;;;18.63;16.67;;;18.10;99.90;;;;;;5150376;27;20086;-57
2021/09/26 09:09:57;;;;;;;21.30;19.20;;;18.10;99.90;;;;;;5150570;27;20042;-58
2021/09/26 09:12:32;;;;;;;19.10;17.10;;;18.10;99.90;;;;;;5144973;27;21631;-58
2021/09/26 09:15:04;;;;;;;57.53;51.72;;;18.10;99.90;;;;;;5130916;27;20410;-57
2021/09/26 09:17:36;;;;;;;39.38;35.50;;;18.00;99.90;;;;;;5150963;27;20043;-57
2021/09/26 09:20:25;;;;;;;28.42;25.55;;;18.00;99.90;;;;;;5151449;27;20039;-57
2021/09/26 09:22:59;;;;;;;20.38;18.20;;;17.90;99.90;;;;;;5148052;27;20460;-56
2021/09/26 09:25:40;;;;;;;21.92;19.70;;;17.90;99.90;;;;;;5150574;27;20043;-57
2021/09/26 09:28:24;;;;;;;21.73;18.20;;;18.00;99.90;;;;;;5149998;27;20118;-57
2021/09/26 09:30:55;;;;;;;23.00;18.95;;;18.10;99.90;;;;;;5150277;27;20129;-60
2021/09/26 09:33:36;;;;;;;20.30;18.15;;;18.20;99.90;;;;;;5151032;27;20059;-50
2021/09/26 09:36:23;;;;;;;20.83;18.65;;;18.50;99.90;;;;;;5148508;27;20050;-55
2021/09/26 09:38:52;;;;;;;20.63;17.48;;;18.90;99.90;;;;;;5151520;27;20061;-48
2021/09/26 09:41:38;;;;;;;16.90;15.10;;;20.20;99.90;;;;;;5151009;27;20099;-54
2021/09/26 09:44:10;;;;;;;17.42;15.70;;;21.60;99.90;;;;;;5134082;27;20065;-52
2021/09/26 09:46:45;;;;;;;17.85;16.02;;;22.70;99.90;;;;;;5133840;27;20055;-52
2021/09/26 09:49:25;;;;;;;14.57;13.10;;;23.60;99.90;;;;;;5147742;27;20103;-49
2021/09/26 09:51:52;;;;;;;14.48;13.05;;;24.60;99.90;;;;;;5152137;27;20045;-46
2021/09/26 09:54:41;;;;;;;14.15;12.73;;;25.20;99.90;;;;;;5145832;27;20057;-52
2021/09/26 09:57:25;;;;;;;13.45;12.20;;;25.80;99.90;;;;;;5133440;27;20538;-54
2021/09/26 09:59:54;;;;;;;12.35;11.25;;;26.30;99.90;;;;;;5147071;27;20071;-49
2021/09/26 10:02:34;;;;;;;13.80;12.48;;;26.40;99.90;;;;;;5149524;27;20076;-50
2021/09/26 10:05:03;;;;;;;14.48;12.95;;;26.80;96.50;;;;;;5145418;27;20051;-55
2021/09/26 10:07:42;;;;;;;13.38;12.07;;;26.60;99.90;;;;;;5139954;27;20485;-49
2021/09/26 10:10:16;;;;;;;13.80;12.20;;;26.30;94.20;;;;;;5150544;27;20055;-51
2021/09/26 10:12:42;;;;;;;13.50;12.20;;;26.20;95.60;;;;;;5149708;27;20894;-49
2021/09/26 10:15:13;;;;;;;13.65;12.23;;;25.90;99.90;;;;;;5149301;27;20134;-50
2021/09/26 10:17:43;;;;;;;;;;;25.10;99.90;;;;;;5150562;27;20058;-49
2021/09/26 10:20:11;;;;;;;13.13;11.55;;;24.50;99.90;;;;;;5143126;27;22272;-53
2021/09/26 10:22:42;;;;;;;13.88;11.27;;;24.40;99.90;;;;;;5141725;27;20051;-46
2021/09/26 10:25:09;;;;;;;13.63;12.13;;;24.50;99.90;;;;;;5149322;27;20049;-50
2021/09/26 10:27:36;;;;;;;14.82;13.30;;;24.70;99.90;;;;;;5150313;27;20079;-50
2021/09/26 10:30:12;;;;;;;15.32;13.15;;;25.00;99.90;;;;;;5144781;27;20057;-49
2021/09/26 10:32:41;;;;;;;13.18;11.88;;;25.70;99.90;;;;;;5148648;27;20101;-49
2021/09/26 10:35:15;;;;;;;14.93;12.48;;;26.40;99.90;;;;;;5148551;27;20131;-46
2021/09/26 10:37:42;;;;;;;14.93;13.10;;;26.80;98.30;;;;;;5130132;27;20502;-44
2021/09/26 10:40:15;;;;;;;14.68;13.18;;;27.30;91.10;;;;;;5127783;27;20054;-48
2021/09/26 10:42:42;;;;;;;15.45;13.95;;;27.70;90.90;;;;;;5148770;27;20050;-46
2021/09/26 10:45:12;;;;;;;172.48;158.82;;;27.60;90.60;;;;;;5146806;27;20053;-50
2021/09/26 10:47:53;;;;;;;14.80;13.27;;;27.70;86.30;;;;;;5147805;27;20106;-49
2021/09/26 10:50:34;;;;;;;13.45;11.77;;;27.50;87.60;;;;;;5144844;27;20082;-51
2021/09/26 10:53:21;;;;;;;14.20;11.95;;;27.10;85.00;;;;;;5144810;27;20062;-47
2021/09/26 10:55:50;;;;;;;15.90;13.20;;;26.80;89.90;;;;;;5148051;27;20094;-54
2021/09/26 10:58:17;;;;;;;13.63;12.23;;;26.40;94.80;;;;;;5148484;27;20039;-45
2021/09/26 11:00:50;;;;;;;15.00;13.60;;;26.10;97.10;;;;;;5147769;27;20395;-48
2021/09/26 11:03:22;;;;;;;14.02;12.65;;;25.80;98.40;;;;;;5148037;27;20046;-47
2021/09/26 11:05:52;;;;;;;14.30;12.90;;;25.60;99.90;;;;;;5150552;27;20146;-45
2021/09/26 11:08:24;;;;;;;15.50;13.88;;;25.40;99.90;;;;;;5150694;27;20050;-46
2021/09/26 11:10:57;;;;;;;14.20;12.88;;;25.30;99.90;;;;;;5150487;27;20050;-50
2021/09/26 11:13:30;;;;;;;13.13;11.68;;;25.20;99.90;;;;;;5149815;27;20050;-46
2021/09/26 11:16:22;;;;;;;14.00;12.32;;;25.20;99.90;;;;;;5146192;27;20086;-46
2021/09/26 11:18:48;;;;;;;14.50;13.00;;;25.10;99.90;;;;;;5150109;27;20078;-44
2021/09/26 11:21:38;;;;;;;15.43;13.85;;;24.90;99.90;;;;;;5133079;27;20079;-48
2021/09/26 11:24:09;;;;;;;17.38;15.65;;;24.80;99.90;;;;;;5144820;27;20175;-49
2021/09/26 11:26:57;;;;;;;19.67;17.80;;;24.50;99.90;;;;;;5143296;27;20436;-45
2021/09/26 11:29:29;;;;;;;14.75;13.10;;;24.30;99.90;;;;;;5143795;27;20055;-45
2021/09/26 11:31:57;;;;;;;16.17;14.45;;;24.20;99.90;;;;;;5145327;27;20049;-47
2021/09/26 11:34:43;;;;;;;25.02;22.55;;;24.20;99.90;;;;;;5130713;27;20134;-47
2021/09/26 11:37:12;;;;;;;20.08;18.00;;;24.30;99.90;;;;;;5138160;27;20057;-44
2021/09/26 11:39:40;;;;;;;24.35;22.05;;;24.60;99.90;;;;;;5136436;27;20062;-45
2021/09/26 11:42:25;;;;;;;18.50;16.55;;;24.70;99.90;;;;;;5137235;27;20054;-45
2021/09/26 11:44:51;;;;;;;18.35;16.55;;;24.90;99.90;;;;;;5125412;27;20120;-45
2021/09/26 11:47:17;;;;;;;19.45;17.48;;;24.90;99.90;;;;;;5148237;27;20115;-46
2021/09/26 11:49:46;;;;;;;18.42;16.73;;;25.00;99.90;;;;;;5145693;27;20570;-46
2021/09/26 11:52:12;;;;;;;31.17;28.13;;;25.40;99.90;;;;;;5147410;27;20050;-45
2021/09/26 11:54:38;;;;;;;167.85;154.02;;;25.70;99.90;;;;;;5130023;27;20050;-46
2021/09/26 11:57:10;;;;;;;77.03;69.68;;;26.30;99.90;;;;;;5141227;27;20413;-49
2021/09/26 11:59:42;;;;;;;286.98;263.52;;;26.70;99.90;;;;;;5130564;27;20463;-48
2021/09/26 12:02:11;;;;;;;;;;;27.40;99.90;;;;;;5148902;27;20081;-47
2021/09/26 12:04:37;;;;;;;36.42;33.67;;;26.70;93.10;;;;;;5142294;27;19950;-46
2021/09/26 12:07:05;;;;;;;20.17;18.27;;;26.50;99.90;;;;;;5148500;27;20039;-47
2021/09/26 12:09:38;;;;;;;31.27;28.63;;;26.40;99.90;;;;;;5131718;27;20129;-47
2021/09/26 12:12:20;;;;;;;17.33;15.68;;;26.30;99.90;;;;;;5149513;27;20588;-48
2021/09/26 12:15:14;;;;;;;18.02;16.17;;;25.90;99.60;;;;;;5149416;27;20062;-49
2021/09/26 12:17:40;;;;;;;26.90;24.20;;;25.60;99.90;;;;;;5119810;27;20051;-47
2021/09/26 12:20:10;;;;;;;18.42;16.63;;;25.20;99.90;;;;;;5146428;27;20046;-47
2021/09/26 12:22:37;;;;;;;17.17;15.63;;;25.40;99.90;;;;;;5130204;27;20513;-48
2021/09/26 12:25:25;;;;;;;16.80;14.73;;;25.50;99.90;;;;;;5146596;27;20082;-46
2021/09/26 12:27:55;;;;;;;43.45;40.00;;;25.60;99.90;;;;;;5146669;27;20593;-46
2021/09/26 12:30:32;;;;;;;23.52;21.52;;;26.30;99.90;;;;;;5147293;27;20051;-49
2021/09/26 12:33:22;;;;;;;14.68;13.38;;;27.40;98.90;;;;;;5147791;27;20058;-45
2021/09/26 12:35:58;;;;;;;15.40;14.00;;;28.10;92.10;;;;;;5150051;27;20057;-49
2021/09/26 12:38:29;;;;;;;15.88;14.38;;;27.70;89.10;;;;;;5139710;27;20130;-56
2021/09/26 12:41:12;;;;;;;15.43;12.43;;;27.30;92.70;;;;;;5149287;27;20081;-47
2021/09/26 12:44:03;;;;;;;15.65;14.15;;;26.90;94.90;;;;;;5150013;27;20054;-47